sensor_id;sensor_type;location;lat;lon;timestamp;pressure;altitude;pressure_sealevel;temperature;humidity
75701;BME280;64321;48.796;44.740;2024-03-02T00:02:56;102990.22;;;-1.51;100.00
75701;BME280;64321;48.796;44.740;2024-03-02T00:07:59;102983.28;;;-1.52;100.00
75701;BME280;64321;48.796;44.740;2024-03-02T00:13:03;102986.75;;;-1.53;100.00
75701;BME280;64321;48.796;44.740;2024-03-02T00:18:06;102983.31;;;-1.51;100.00
75701;BME280;64321;48.796;44.740;2024-03-02T00:23:09;102986.69;;;-1.59;100.00
75701;BME280;64321;48.796;44.740;2024-03-02T00:33:36;103000.56;;;-1.53;100.00
75701;BME280;64321;48.796;44.740;2024-03-02T00:38:48;103001.16;;;-1.90;100.00
75701;BME280;64321;48.796;44.740;2024-03-02T00:44:03;102994.09;;;-2.08;100.00
75701;BME280;64321;48.796;44.740;2024-03-02T00:54:10;102990.44;;;-2.30;100.00
75701;BME280;64321;48.796;44.740;2024-03-02T00:59:13;102994.75;;;-2.30;100.00
75701;BME280;64321;48.796;44.740;2024-03-02T01:04:16;103000.59;;;-2.51;100.00
75701;BME280;64321;48.796;44.740;2024-03-02T01:09:18;103011.78;;;-2.51;100.00
75701;BME280;64321;48.796;44.740;2024-03-02T01:14:21;103007.28;;;-2.68;100.00
75701;BME280;64321;48.796;44.740;2024-03-02T01:19:24;103014.13;;;-2.73;100.00
75701;BME280;64321;48.796;44.740;2024-03-02T01:24:26;103010.47;;;-2.91;100.00
75701;BME280;64321;48.796;44.740;2024-03-02T01:29:29;103012.31;;;-2.81;100.00
75701;BME280;64321;48.796;44.740;2024-03-02T01:34:31;103013.91;;;-2.92;100.00
75701;BME280;64321;48.796;44.740;2024-03-02T01:39:34;103025.19;;;-2.87;100.00
75701;BME280;64321;48.796;44.740;2024-03-02T01:44:36;103006.84;;;-3.05;100.00
75701;BME280;64321;48.796;44.740;2024-03-02T01:49:39;103016.22;;;-3.13;100.00
75701;BME280;64321;48.796;44.740;2024-03-02T01:54:43;103010.75;;;-3.33;100.00
75701;BME280;64321;48.796;44.740;2024-03-02T01:59:46;103014.09;;;-3.41;100.00
75701;BME280;64321;48.796;44.740;2024-03-02T02:04:53;103011.59;;;-3.35;100.00
75701;BME280;64321;48.796;44.740;2024-03-02T02:09:55;103012.25;;;-3.48;100.00
75701;BME280;64321;48.796;44.740;2024-03-02T02:14:58;103009.78;;;-3.39;100.00
75701;BME280;64321;48.796;44.740;2024-03-02T02:20:01;103009.06;;;-3.32;100.00
75701;BME280;64321;48.796;44.740;2024-03-02T02:25:04;102999.56;;;-3.33;100.00
75701;BME280;64321;48.796;44.740;2024-03-02T02:30:07;102995.41;;;-3.22;100.00
75701;BME280;64321;48.796;44.740;2024-03-02T02:35:10;103001.31;;;-3.32;100.00
75701;BME280;64321;48.796;44.740;2024-03-02T02:40:13;103002.94;;;-3.40;100.00
75701;BME280;64321;48.796;44.740;2024-03-02T02:45:16;103003.50;;;-3.58;100.00
75701;BME280;64321;48.796;44.740;2024-03-02T02:50:18;103009.47;;;-3.64;100.00
75701;BME280;64321;48.796;44.740;2024-03-02T02:55:21;103006.84;;;-3.65;100.00
75701;BME280;64321;48.796;44.740;2024-03-02T03:00:23;103001.47;;;-3.79;100.00
75701;BME280;64321;48.796;44.740;2024-03-02T03:05:26;102995.72;;;-3.63;100.00
75701;BME280;64321;48.796;44.740;2024-03-02T03:10:28;102998.03;;;-3.79;100.00
75701;BME280;64321;48.796;44.740;2024-03-02T03:15:31;102998.25;;;-3.64;100.00
75701;BME280;64321;48.796;44.740;2024-03-02T03:20:34;103002.56;;;-3.65;100.00
75701;BME280;64321;48.796;44.740;2024-03-02T03:25:36;102995.50;;;-3.75;100.00
75701;BME280;64321;48.796;44.740;2024-03-02T03:30:39;103014.25;;;-3.87;100.00
75701;BME280;64321;48.796;44.740;2024-03-02T03:35:42;103009.34;;;-3.70;100.00
75701;BME280;64321;48.796;44.740;2024-03-02T03:40:44;103013.50;;;-3.79;100.00
75701;BME280;64321;48.796;44.740;2024-03-02T03:45:47;103014.44;;;-3.74;100.00
75701;BME280;64321;48.796;44.740;2024-03-02T03:50:50;103003.25;;;-3.73;100.00
75701;BME280;64321;48.796;44.740;2024-03-02T03:55:52;103007.78;;;-3.62;100.00
75701;BME280;64321;48.796;44.740;2024-03-02T04:00:55;103007.84;;;-3.56;100.00
75701;BME280;64321;48.796;44.740;2024-03-02T04:05:57;103019.59;;;-3.74;100.00
75701;BME280;64321;48.796;44.740;2024-03-02T04:11:00;103010.50;;;-3.51;100.00
75701;BME280;64321;48.796;44.740;2024-03-02T04:16:05;103007.03;;;-3.52;100.00
75701;BME280;64321;48.796;44.740;2024-03-02T04:21:07;103011.53;;;-3.38;100.00
75701;BME280;64321;48.796;44.740;2024-03-02T04:26:10;103015.22;;;-3.21;100.00
75701;BME280;64321;48.796;44.740;2024-03-02T04:31:12;103012.56;;;-3.29;100.00
75701;BME280;64321;48.796;44.740;2024-03-02T04:36:15;103016.22;;;-3.13;100.00
75701;BME280;64321;48.796;44.740;2024-03-02T04:41:18;103019.72;;;-3.09;100.00
75701;BME280;64321;48.796;44.740;2024-03-02T04:46:20;103015.38;;;-3.12;100.00
75701;BME280;64321;48.796;44.740;2024-03-02T04:51:23;103013.78;;;-3.01;100.00
75701;BME280;64321;48.796;44.740;2024-03-02T04:56:25;103012.88;;;-3.03;100.00
75701;BME280;64321;48.796;44.740;2024-03-02T05:01:33;103024.13;;;-3.01;100.00
75701;BME280;64321;48.796;44.740;2024-03-02T05:06:36;103024.06;;;-3.04;100.00
75701;BME280;64321;48.796;44.740;2024-03-02T05:11:39;103031.09;;;-2.95;100.00
75701;BME280;64321;48.796;44.740;2024-03-02T05:16:41;103018.94;;;-3.01;100.00
75701;BME280;64321;48.796;44.740;2024-03-02T05:21:44;103029.50;;;-2.83;100.00
75701;BME280;64321;48.796;44.740;2024-03-02T05:26:47;103031.44;;;-2.66;100.00
75701;BME280;64321;48.796;44.740;2024-03-02T05:31:49;103032.50;;;-2.48;100.00
75701;BME280;64321;48.796;44.740;2024-03-02T05:36:52;103034.31;;;-2.42;100.00
75701;BME280;64321;48.796;44.740;2024-03-02T05:41:54;103023.28;;;-2.23;100.00
75701;BME280;64321;48.796;44.740;2024-03-02T05:46:57;103022.53;;;-2.10;100.00
75701;BME280;64321;48.796;44.740;2024-03-02T05:51:59;103028.66;;;-2.04;100.00
75701;BME280;64321;48.796;44.740;2024-03-02T05:57:02;103021.03;;;-1.86;100.00
75701;BME280;64321;48.796;44.740;2024-03-02T06:02:19;103025.47;;;-1.70;100.00
75701;BME280;64321;48.796;44.740;2024-03-02T06:07:22;103028.97;;;-1.65;100.00
75701;BME280;64321;48.796;44.740;2024-03-02T06:12:24;103041.25;;;-1.36;100.00
75701;BME280;64321;48.796;44.740;2024-03-02T06:17:27;103039.66;;;-1.16;100.00
75701;BME280;64321;48.796;44.740;2024-03-02T06:22:29;103033.72;;;-0.98;100.00
75701;BME280;64321;48.796;44.740;2024-03-02T06:27:32;103041.59;;;-0.70;100.00
75701;BME280;64321;48.796;44.740;2024-03-02T06:32:35;103050.25;;;-0.67;100.00
75701;BME280;64321;48.796;44.740;2024-03-02T06:37:38;103052.97;;;-0.39;100.00
75701;BME280;64321;48.796;44.740;2024-03-02T06:42:42;103040.91;;;-0.08;100.00
75701;BME280;64321;48.796;44.740;2024-03-02T06:47:46;103051.31;;;0.00;100.00
75701;BME280;64321;48.796;44.740;2024-03-02T06:52:48;103049.59;;;0.17;100.00
75701;BME280;64321;48.796;44.740;2024-03-02T06:57:51;103047.88;;;0.16;100.00
75701;BME280;64321;48.796;44.740;2024-03-02T07:02:54;103048.72;;;0.37;100.00
75701;BME280;64321;48.796;44.740;2024-03-02T07:07:57;103054.75;;;0.81;100.00
75701;BME280;64321;48.796;44.740;2024-03-02T07:12:59;103046.00;;;1.05;100.00
75701;BME280;64321;48.796;44.740;2024-03-02T07:18:02;103041.56;;;1.28;100.00
75701;BME280;64321;48.796;44.740;2024-03-02T07:23:05;103049.25;;;1.57;100.00
75701;BME280;64321;48.796;44.740;2024-03-02T07:28:08;103039.59;;;1.76;100.00
75701;BME280;64321;48.796;44.740;2024-03-02T07:33:10;103041.28;;;1.80;100.00
75701;BME280;64321;48.796;44.740;2024-03-02T07:38:13;103025.59;;;1.92;100.00
75701;BME280;64321;48.796;44.740;2024-03-02T07:43:16;103033.94;;;2.34;100.00
75701;BME280;64321;48.796;44.740;2024-03-02T07:48:19;103032.88;;;2.55;100.00
75701;BME280;64321;48.796;44.740;2024-03-02T07:53:22;103025.69;;;2.76;100.00
75701;BME280;64321;48.796;44.740;2024-03-02T07:58:24;103032.53;;;2.87;100.00
75701;BME280;64321;48.796;44.740;2024-03-02T08:03:27;103028.03;;;3.04;97.34
75701;BME280;64321;48.796;44.740;2024-03-02T08:08:29;103024.25;;;3.26;98.07
75701;BME280;64321;48.796;44.740;2024-03-02T08:13:32;103018.69;;;3.54;93.47
75701;BME280;64321;48.796;44.740;2024-03-02T08:18:34;103021.41;;;3.43;93.09
75701;BME280;64321;48.796;44.740;2024-03-02T08:23:37;103014.22;;;3.60;93.83
75701;BME280;64321;48.796;44.740;2024-03-02T08:28:42;103003.06;;;3.49;95.81
75701;BME280;64321;48.796;44.740;2024-03-02T08:33:45;103001.94;;;3.65;95.63
75701;BME280;64321;48.796;44.740;2024-03-02T08:38:49;102982.06;;;3.57;94.50
75701;BME280;64321;48.796;44.740;2024-03-02T08:43:52;102998.47;;;3.65;96.21
75701;BME280;64321;48.796;44.740;2024-03-02T08:48:54;102995.59;;;3.83;94.53
75701;BME280;64321;48.796;44.740;2024-03-02T08:53:58;102989.56;;;3.76;95.80
75701;BME280;64321;48.796;44.740;2024-03-02T08:59:00;102981.38;;;3.99;96.67
75701;BME280;64321;48.796;44.740;2024-03-02T09:04:03;102977.00;;;4.01;92.71
75701;BME280;64321;48.796;44.740;2024-03-02T09:09:05;102969.00;;;4.10;93.10
75701;BME280;64321;48.796;44.740;2024-03-02T09:14:08;102962.69;;;4.68;90.54
75701;BME280;64321;48.796;44.740;2024-03-02T09:19:11;102954.16;;;5.02;87.80
75701;BME280;64321;48.796;44.740;2024-03-02T09:24:13;102947.56;;;5.24;84.73
75701;BME280;64321;48.796;44.740;2024-03-02T09:29:19;102947.22;;;5.39;81.86
75701;BME280;64321;48.796;44.740;2024-03-02T09:34:23;102931.22;;;5.51;79.18
75701;BME280;64321;48.796;44.740;2024-03-02T09:39:26;102930.09;;;5.62;77.67
75701;BME280;64321;48.796;44.740;2024-03-02T09:44:29;102933.72;;;5.93;78.18
75701;BME280;64321;48.796;44.740;2024-03-02T09:49:32;102929.59;;;6.18;75.49
75701;BME280;64321;48.796;44.740;2024-03-02T09:54:34;102917.69;;;6.38;71.90
75701;BME280;64321;48.796;44.740;2024-03-02T09:59:37;102919.91;;;6.53;74.12
75701;BME280;64321;48.796;44.740;2024-03-02T10:04:39;102910.31;;;6.81;67.98
75701;BME280;64321;48.796;44.740;2024-03-02T10:09:43;102917.22;;;6.85;64.37
75701;BME280;64321;48.796;44.740;2024-03-02T10:14:47;102913.03;;;7.08;63.22
75701;BME280;64321;48.796;44.740;2024-03-02T10:19:51;102906.88;;;7.09;58.95
75701;BME280;64321;48.796;44.740;2024-03-02T10:24:53;102908.84;;;7.30;57.73
75701;BME280;64321;48.796;44.740;2024-03-02T10:30:02;102884.19;;;7.34;56.27
75701;BME280;64321;48.796;44.740;2024-03-02T10:35:05;102884.13;;;7.36;56.84
75701;BME280;64321;48.796;44.740;2024-03-02T10:40:10;102884.38;;;7.28;57.24
75701;BME280;64321;48.796;44.740;2024-03-02T10:45:15;102881.22;;;7.17;58.08
75701;BME280;64321;48.796;44.740;2024-03-02T10:50:18;102868.47;;;7.05;58.94
75701;BME280;64321;48.796;44.740;2024-03-02T10:55:21;102870.88;;;7.12;60.03
75701;BME280;64321;48.796;44.740;2024-03-02T11:00:33;102870.84;;;7.40;61.48
75701;BME280;64321;48.796;44.740;2024-03-02T11:05:38;102873.47;;;7.40;62.20
75701;BME280;64321;48.796;44.740;2024-03-02T11:10:48;102862.88;;;7.43;62.59
75701;BME280;64321;48.796;44.740;2024-03-02T11:16:02;102870.75;;;7.43;62.52
75701;BME280;64321;48.796;44.740;2024-03-02T11:21:07;102873.06;;;7.79;62.09
75701;BME280;64321;48.796;44.740;2024-03-02T11:26:22;102877.09;;;7.64;63.39
75701;BME280;64321;48.796;44.740;2024-03-02T11:31:59;102866.81;;;7.56;65.23
75701;BME280;64321;48.796;44.740;2024-03-02T11:37:05;102860.41;;;7.37;66.61
75701;BME280;64321;48.796;44.740;2024-03-02T11:42:08;102856.34;;;7.55;65.67
75701;BME280;64321;48.796;44.740;2024-03-02T11:47:16;102863.78;;;7.69;64.09
75701;BME280;64321;48.796;44.740;2024-03-02T11:52:18;102851.97;;;7.54;64.97
75701;BME280;64321;48.796;44.740;2024-03-02T11:57:22;102848.50;;;7.27;63.83
75701;BME280;64321;48.796;44.740;2024-03-02T12:02:29;102854.25;;;7.38;63.92
75701;BME280;64321;48.796;44.740;2024-03-02T12:07:32;102850.63;;;7.16;64.19
75701;BME280;64321;48.796;44.740;2024-03-02T12:12:35;102856.47;;;7.52;64.87
75701;BME280;64321;48.796;44.740;2024-03-02T12:17:37;102852.53;;;7.37;63.14
75701;BME280;64321;48.796;44.740;2024-03-02T12:22:40;102854.34;;;7.35;63.47
75701;BME280;64321;48.796;44.740;2024-03-02T12:27:43;102857.78;;;7.37;63.16
75701;BME280;64321;48.796;44.740;2024-03-02T12:32:46;102840.25;;;7.11;62.97
75701;BME280;64321;48.796;44.740;2024-03-02T12:37:52;102837.47;;;7.16;63.79
75701;BME280;64321;48.796;44.740;2024-03-02T12:42:55;102842.63;;;7.19;62.65
75701;BME280;64321;48.796;44.740;2024-03-02T12:48:00;102834.53;;;6.99;63.06
75701;BME280;64321;48.796;44.740;2024-03-02T12:53:04;102844.56;;;7.14;62.87
75701;BME280;64321;48.796;44.740;2024-03-02T12:58:06;102851.13;;;7.27;62.64
75701;BME280;64321;48.796;44.740;2024-03-02T13:03:09;102849.63;;;7.18;62.38
75701;BME280;64321;48.796;44.740;2024-03-02T13:08:14;102855.38;;;6.75;61.40
75701;BME280;64321;48.796;44.740;2024-03-02T13:13:17;102853.69;;;6.73;61.91
75701;BME280;64321;48.796;44.740;2024-03-02T13:18:19;102858.63;;;6.54;62.52
75701;BME280;64321;48.796;44.740;2024-03-02T13:23:22;102851.41;;;6.62;61.67
75701;BME280;64321;48.796;44.740;2024-03-02T13:28:25;102854.81;;;6.64;62.84
75701;BME280;64321;48.796;44.740;2024-03-02T13:33:28;102856.97;;;6.50;63.25
75701;BME280;64321;48.796;44.740;2024-03-02T13:38:32;102858.31;;;6.34;65.43
75701;BME280;64321;48.796;44.740;2024-03-02T13:43:35;102856.03;;;6.21;68.10
75701;BME280;64321;48.796;44.740;2024-03-02T13:48:39;102856.94;;;6.20;68.28
75701;BME280;64321;48.796;44.740;2024-03-02T13:53:42;102861.44;;;6.15;69.70
75701;BME280;64321;48.796;44.740;2024-03-02T13:58:45;102856.78;;;5.94;74.51
75701;BME280;64321;48.796;44.740;2024-03-02T14:03:48;102846.97;;;5.67;78.41
75701;BME280;64321;48.796;44.740;2024-03-02T14:08:51;102854.53;;;5.43;84.53
75701;BME280;64321;48.796;44.740;2024-03-02T14:13:53;102853.97;;;5.32;88.22
75701;BME280;64321;48.796;44.740;2024-03-02T14:18:56;102861.25;;;5.19;97.78
75701;BME280;64321;48.796;44.740;2024-03-02T14:24:00;102860.63;;;5.08;100.00
75701;BME280;64321;48.796;44.740;2024-03-02T14:29:03;102874.16;;;4.88;100.00
75701;BME280;64321;48.796;44.740;2024-03-02T14:34:06;102868.41;;;4.71;100.00
75701;BME280;64321;48.796;44.740;2024-03-02T14:39:09;102872.31;;;4.52;100.00
75701;BME280;64321;48.796;44.740;2024-03-02T14:44:12;102877.88;;;4.35;100.00
75701;BME280;64321;48.796;44.740;2024-03-02T14:49:15;102870.53;;;4.09;100.00
75701;BME280;64321;48.796;44.740;2024-03-02T14:54:17;102863.13;;;3.87;100.00
75701;BME280;64321;48.796;44.740;2024-03-02T14:59:20;102863.38;;;3.73;100.00
75701;BME280;64321;48.796;44.740;2024-03-02T15:04:22;102867.81;;;3.66;100.00
75701;BME280;64321;48.796;44.740;2024-03-02T15:09:25;102861.81;;;3.60;100.00
75701;BME280;64321;48.796;44.740;2024-03-02T15:14:28;102864.66;;;3.47;100.00
75701;BME280;64321;48.796;44.740;2024-03-02T15:19:30;102862.38;;;3.26;100.00
75701;BME280;64321;48.796;44.740;2024-03-02T15:24:33;102881.66;;;3.16;100.00
75701;BME280;64321;48.796;44.740;2024-03-02T15:29:36;102879.25;;;3.04;100.00
75701;BME280;64321;48.796;44.740;2024-03-02T15:34:38;102883.72;;;2.94;100.00
75701;BME280;64321;48.796;44.740;2024-03-02T15:39:41;102893.44;;;2.83;100.00
75701;BME280;64321;48.796;44.740;2024-03-02T15:44:46;102887.56;;;2.67;100.00
75701;BME280;64321;48.796;44.740;2024-03-02T15:49:48;102896.25;;;2.66;100.00
75701;BME280;64321;48.796;44.740;2024-03-02T15:54:52;102892.84;;;2.60;100.00
75701;BME280;64321;48.796;44.740;2024-03-02T15:59:54;102890.31;;;2.54;100.00
75701;BME280;64321;48.796;44.740;2024-03-02T16:04:58;102895.59;;;2.49;100.00
75701;BME280;64321;48.796;44.740;2024-03-02T16:10:00;102893.88;;;2.47;100.00
75701;BME280;64321;48.796;44.740;2024-03-02T16:15:07;102888.75;;;2.37;100.00
75701;BME280;64321;48.796;44.740;2024-03-02T16:20:11;102888.84;;;2.33;100.00
75701;BME280;64321;48.796;44.740;2024-03-02T16:25:14;102888.88;;;2.30;100.00
75701;BME280;64321;48.796;44.740;2024-03-02T16:30:16;102883.69;;;2.27;100.00
75701;BME280;64321;48.796;44.740;2024-03-02T16:35:21;102880.28;;;2.19;100.00
75701;BME280;64321;48.796;44.740;2024-03-02T16:40:23;102876.81;;;2.17;100.00
75701;BME280;64321;48.796;44.740;2024-03-02T16:45:26;102887.25;;;2.17;100.00
75701;BME280;64321;48.796;44.740;2024-03-02T16:50:28;102883.00;;;2.09;100.00
75701;BME280;64321;48.796;44.740;2024-03-02T16:55:31;102884.72;;;2.11;100.00
75701;BME280;64321;48.796;44.740;2024-03-02T17:00:33;102881.31;;;2.02;100.00
75701;BME280;64321;48.796;44.740;2024-03-02T17:05:36;102878.75;;;1.99;100.00
75701;BME280;64321;48.796;44.740;2024-03-02T17:10:39;102864.09;;;1.89;100.00
75701;BME280;64321;48.796;44.740;2024-03-02T17:15:42;102860.66;;;1.81;100.00
75701;BME280;64321;48.796;44.740;2024-03-02T17:20:45;102866.00;;;1.69;100.00
75701;BME280;64321;48.796;44.740;2024-03-02T17:25:47;102864.28;;;1.65;100.00
75701;BME280;64321;48.796;44.740;2024-03-02T17:30:53;102855.63;;;1.63;100.00
75701;BME280;64321;48.796;44.740;2024-03-02T17:35:56;102854.91;;;1.47;100.00
75701;BME280;64321;48.796;44.740;2024-03-02T17:41:00;102851.25;;;1.66;100.00
75701;BME280;64321;48.796;44.740;2024-03-02T17:46:03;102849.66;;;1.50;100.00
75701;BME280;64321;48.796;44.740;2024-03-02T17:51:06;102845.31;;;1.51;100.00
75701;BME280;64321;48.796;44.740;2024-03-02T17:56:10;102841.13;;;1.36;100.00
75701;BME280;64321;48.796;44.740;2024-03-02T18:01:14;102839.41;;;1.33;100.00
75701;BME280;64321;48.796;44.740;2024-03-02T18:06:17;102823.06;;;1.10;100.00
75701;BME280;64321;48.796;44.740;2024-03-02T18:11:20;102836.97;;;1.09;100.00
75701;BME280;64321;48.796;44.740;2024-03-02T18:16:26;102838.75;;;1.06;100.00
75701;BME280;64321;48.796;44.740;2024-03-02T18:21:29;102824.88;;;1.05;100.00
75701;BME280;64321;48.796;44.740;2024-03-02T18:26:31;102830.97;;;0.99;100.00
75701;BME280;64321;48.796;44.740;2024-03-02T18:31:36;102824.91;;;0.97;100.00
75701;BME280;64321;48.796;44.740;2024-03-02T18:36:39;102825.88;;;0.81;100.00
75701;BME280;64321;48.796;44.740;2024-03-02T18:41:41;102825.88;;;0.81;100.00
75701;BME280;64321;48.796;44.740;2024-03-02T18:46:44;102826.75;;;0.79;100.00
75701;BME280;64321;48.796;44.740;2024-03-02T18:51:49;102824.19;;;0.73;100.00
75701;BME280;64321;48.796;44.740;2024-03-02T18:56:52;102818.16;;;0.67;100.00
75701;BME280;64321;48.796;44.740;2024-03-02T19:01:55;102825.09;;;0.62;100.00
75701;BME280;64321;48.796;44.740;2024-03-02T19:06:57;102826.00;;;0.57;100.00
75701;BME280;64321;48.796;44.740;2024-03-02T19:12:00;102817.34;;;0.56;100.00
75701;BME280;64321;48.796;44.740;2024-03-02T19:17:03;102828.59;;;0.61;100.00
75701;BME280;64321;48.796;44.740;2024-03-02T19:22:06;102824.25;;;0.59;100.00
75701;BME280;64321;48.796;44.740;2024-03-02T19:27:13;102825.13;;;0.56;100.00
75701;BME280;64321;48.796;44.740;2024-03-02T19:32:15;102830.31;;;0.59;100.00
75701;BME280;64321;48.796;44.740;2024-03-02T19:37:22;102831.19;;;0.57;100.00
75701;BME280;64321;48.796;44.740;2024-03-02T19:42:25;102823.47;;;0.45;100.00
75701;BME280;64321;48.796;44.740;2024-03-02T19:47:28;102823.47;;;0.43;100.00
75701;BME280;64321;48.796;44.740;2024-03-02T19:52:36;102807.88;;;0.46;100.00
75701;BME280;64321;48.796;44.740;2024-03-02T19:57:39;102806.16;;;0.39;100.00
75701;BME280;64321;48.796;44.740;2024-03-02T20:02:51;102813.09;;;0.37;100.00
75701;BME280;64321;48.796;44.740;2024-03-02T20:08:13;102792.38;;;0.22;100.00
75701;BME280;64321;48.796;44.740;2024-03-02T20:13:16;102800.16;;;0.28;100.00
75701;BME280;64321;48.796;44.740;2024-03-02T20:18:18;102805.34;;;0.26;100.00
75701;BME280;64321;48.796;44.740;2024-03-02T20:23:21;102802.75;;;0.22;100.00
75701;BME280;64321;48.796;44.740;2024-03-02T20:28:24;102808.00;;;0.16;100.00
75701;BME280;64321;48.796;44.740;2024-03-02T20:33:27;102817.53;;;0.06;100.00
75701;BME280;64321;48.796;44.740;2024-03-02T20:38:29;102812.31;;;0.15;100.00
75701;BME280;64321;48.796;44.740;2024-03-02T20:43:34;102821.00;;;0.13;100.00
75701;BME280;64321;48.796;44.740;2024-03-02T20:48:37;102821.88;;;0.09;100.00
75701;BME280;64321;48.796;44.740;2024-03-02T20:53:41;102818.38;;;0.13;100.00
75701;BME280;64321;48.796;44.740;2024-03-02T20:58:44;102823.59;;;0.16;100.00
75701;BME280;64321;48.796;44.740;2024-03-02T21:03:47;102821.00;;;0.05;100.00
75701;BME280;64321;48.796;44.740;2024-03-02T21:08:49;102825.31;;;0.11;100.00
75701;BME280;64321;48.796;44.740;2024-03-02T21:13:52;102834.84;;;0.16;100.00
75701;BME280;64321;48.796;44.740;2024-03-02T21:18:56;102831.34;;;0.19;100.00
75701;BME280;64321;48.796;44.740;2024-03-02T21:23:58;102833.13;;;0.14;100.00
75701;BME280;64321;48.796;44.740;2024-03-02T21:29:01;102834.84;;;0.16;100.00
75701;BME280;64321;48.796;44.740;2024-03-02T21:34:05;102830.53;;;0.02;100.00
75701;BME280;64321;48.796;44.740;2024-03-02T21:39:09;102827.94;;;0.06;100.00
75701;BME280;64321;48.796;44.740;2024-03-02T21:44:12;102819.31;;;-0.13;100.00
75701;BME280;64321;48.796;44.740;2024-03-02T21:49:15;102832.28;;;-0.01;100.00
75701;BME280;64321;48.796;44.740;2024-03-02T21:54:17;102837.47;;;-0.01;100.00
75701;BME280;64321;48.796;44.740;2024-03-02T21:59:20;102847.88;;;-0.01;100.00
75701;BME280;64321;48.796;44.740;2024-03-02T22:04:22;102842.69;;;-0.02;100.00
75701;BME280;64321;48.796;44.740;2024-03-02T22:09:25;102839.22;;;-0.09;100.00
75701;BME280;64321;48.796;44.740;2024-03-02T22:14:28;102847.00;;;-0.07;100.00
75701;BME280;64321;48.796;44.740;2024-03-02T22:19:30;102844.41;;;-0.13;100.00
75701;BME280;64321;48.796;44.740;2024-03-02T22:24:33;102847.00;;;-0.04;100.00
75701;BME280;64321;48.796;44.740;2024-03-02T22:29:35;102857.38;;;-0.16;100.00
75701;BME280;64321;48.796;44.740;2024-03-02T22:34:38;102856.56;;;-0.24;100.00
75701;BME280;64321;48.796;44.740;2024-03-02T22:39:41;102856.56;;;-0.24;100.00
75701;BME280;64321;48.796;44.740;2024-03-02T22:44:43;102851.38;;;-0.44;100.00
75701;BME280;64321;48.796;44.740;2024-03-02T22:49:46;102849.66;;;-0.41;100.00
75701;BME280;64321;48.796;44.740;2024-03-02T22:54:49;102840.13;;;-0.51;100.00
75701;BME280;64321;48.796;44.740;2024-03-02T22:59:51;102836.69;;;-0.57;100.00
75701;BME280;64321;48.796;44.740;2024-03-02T23:04:54;102831.47;;;-0.59;100.00
75701;BME280;64321;48.796;44.740;2024-03-02T23:09:56;102823.72;;;-0.73;100.00
75701;BME280;64321;48.796;44.740;2024-03-02T23:14:59;102815.03;;;-0.68;100.00
75701;BME280;64321;48.796;44.740;2024-03-02T23:20:01;102812.44;;;-0.70;100.00
75701;BME280;64321;48.796;44.740;2024-03-02T23:25:04;102809.84;;;-0.81;100.00
75701;BME280;64321;48.796;44.740;2024-03-02T23:30:09;102816.75;;;-0.87;100.00
75701;BME280;64321;48.796;44.740;2024-03-02T23:35:12;102817.63;;;-0.97;100.00
75701;BME280;64321;48.796;44.740;2024-03-02T23:40:14;102819.34;;;-0.95;100.00
75701;BME280;64321;48.796;44.740;2024-03-02T23:45:19;102826.25;;;-0.97;100.00
75701;BME280;64321;48.796;44.740;2024-03-02T23:50:21;102830.56;;;-1.05;100.00
75701;BME280;64321;48.796;44.740;2024-03-02T23:55:24;102827.97;;;-1.00;100.00
